sensor_id;sensor_type;location;lat;lon;timestamp;P1;durP1;ratioP1;P2;durP2;ratioP2
15398;SDS011;7797;51.428;6.756;2023-09-19T00:00:21;3.07;;;1.60;;
15398;SDS011;7797;51.428;6.756;2023-09-19T00:02:56;4.50;;;1.90;;
15398;SDS011;7797;51.428;6.756;2023-09-19T00:05:24;3.83;;;1.80;;
15398;SDS011;7797;51.428;6.756;2023-09-19T00:07:54;4.50;;;2.03;;
15398;SDS011;7797;51.428;6.756;2023-09-19T00:10:23;3.07;;;1.60;;
15398;SDS011;7797;51.428;6.756;2023-09-19T00:12:53;2.00;;;1.80;;
15398;SDS011;7797;51.428;6.756;2023-09-19T00:15:25;4.53;;;2.03;;
15398;SDS011;7797;51.428;6.756;2023-09-19T00:17:55;4.13;;;2.17;;
15398;SDS011;7797;51.428;6.756;2023-09-19T00:20:22;7.03;;;2.20;;
15398;SDS011;7797;51.428;6.756;2023-09-19T00:22:50;3.93;;;2.07;;
15398;SDS011;7797;51.428;6.756;2023-09-19T00:25:20;3.27;;;1.90;;
15398;SDS011;7797;51.428;6.756;2023-09-19T00:27:47;2.43;;;1.53;;
15398;SDS011;7797;51.428;6.756;2023-09-19T00:30:17;5.67;;;2.40;;
15398;SDS011;7797;51.428;6.756;2023-09-19T00:32:48;3.37;;;1.90;;
15398;SDS011;7797;51.428;6.756;2023-09-19T00:35:18;4.53;;;2.20;;
15398;SDS011;7797;51.428;6.756;2023-09-19T00:37:45;6.33;;;2.00;;
15398;SDS011;7797;51.428;6.756;2023-09-19T00:40:12;4.53;;;2.20;;
15398;SDS011;7797;51.428;6.756;2023-09-19T00:42:39;3.83;;;1.90;;
15398;SDS011;7797;51.428;6.756;2023-09-19T00:45:07;4.80;;;2.07;;
15398;SDS011;7797;51.428;6.756;2023-09-19T00:47:44;2.13;;;1.80;;
15398;SDS011;7797;51.428;6.756;2023-09-19T00:50:19;5.03;;;2.03;;
15398;SDS011;7797;51.428;6.756;2023-09-19T00:52:48;5.73;;;1.93;;
15398;SDS011;7797;51.428;6.756;2023-09-19T00:55:16;5.13;;;2.20;;
15398;SDS011;7797;51.428;6.756;2023-09-19T00:57:47;3.43;;;2.57;;
15398;SDS011;7797;51.428;6.756;2023-09-19T01:00:16;4.53;;;1.90;;
15398;SDS011;7797;51.428;6.756;2023-09-19T01:02:47;5.13;;;2.03;;
15398;SDS011;7797;51.428;6.756;2023-09-19T01:05:15;7.43;;;2.10;;
15398;SDS011;7797;51.428;6.756;2023-09-19T01:07:42;7.87;;;2.23;;
15398;SDS011;7797;51.428;6.756;2023-09-19T01:10:11;4.90;;;2.00;;
15398;SDS011;7797;51.428;6.756;2023-09-19T01:13:01;4.27;;;2.10;;
15398;SDS011;7797;51.428;6.756;2023-09-19T01:15:38;6.00;;;2.20;;
15398;SDS011;7797;51.428;6.756;2023-09-19T01:18:15;6.13;;;1.93;;
15398;SDS011;7797;51.428;6.756;2023-09-19T01:32:17;6.10;;;2.00;;
15398;SDS011;7797;51.428;6.756;2023-09-19T01:34:55;6.00;;;2.03;;
15398;SDS011;7797;51.428;6.756;2023-09-19T01:37:30;4.17;;;1.93;;
15398;SDS011;7797;51.428;6.756;2023-09-19T01:39:58;4.00;;;2.07;;
15398;SDS011;7797;51.428;6.756;2023-09-19T01:45:26;7.53;;;2.40;;
15398;SDS011;7797;51.428;6.756;2023-09-19T01:47:52;3.67;;;2.03;;
15398;SDS011;7797;51.428;6.756;2023-09-19T01:50:34;5.13;;;2.10;;
15398;SDS011;7797;51.428;6.756;2023-09-19T01:53:10;5.00;;;2.27;;
15398;SDS011;7797;51.428;6.756;2023-09-19T01:55:43;4.07;;;2.10;;
15398;SDS011;7797;51.428;6.756;2023-09-19T01:58:27;5.73;;;2.23;;
15398;SDS011;7797;51.428;6.756;2023-09-19T02:01:00;3.40;;;1.90;;
15398;SDS011;7797;51.428;6.756;2023-09-19T02:03:27;3.43;;;1.63;;
15398;SDS011;7797;51.428;6.756;2023-09-19T02:05:55;4.40;;;1.93;;
15398;SDS011;7797;51.428;6.756;2023-09-19T02:08:22;5.70;;;1.90;;
15398;SDS011;7797;51.428;6.756;2023-09-19T02:10:52;3.10;;;2.17;;
15398;SDS011;7797;51.428;6.756;2023-09-19T02:13:19;4.27;;;1.87;;
15398;SDS011;7797;51.428;6.756;2023-09-19T02:15:47;4.10;;;2.23;;
15398;SDS011;7797;51.428;6.756;2023-09-19T02:18:14;5.47;;;2.00;;
15398;SDS011;7797;51.428;6.756;2023-09-19T02:20:41;3.47;;;1.70;;
15398;SDS011;7797;51.428;6.756;2023-09-19T02:23:08;3.53;;;1.90;;
15398;SDS011;7797;51.428;6.756;2023-09-19T02:25:36;4.50;;;1.90;;
15398;SDS011;7797;51.428;6.756;2023-09-19T02:28:04;8.17;;;2.20;;
15398;SDS011;7797;51.428;6.756;2023-09-19T02:30:32;3.07;;;1.90;;
15398;SDS011;7797;51.428;6.756;2023-09-19T02:32:59;4.00;;;1.70;;
15398;SDS011;7797;51.428;6.756;2023-09-19T02:35:29;3.60;;;1.73;;
15398;SDS011;7797;51.428;6.756;2023-09-19T02:38:02;4.93;;;2.50;;
15398;SDS011;7797;51.428;6.756;2023-09-19T02:40:33;5.90;;;2.07;;
15398;SDS011;7797;51.428;6.756;2023-09-19T02:43:02;4.00;;;2.20;;
15398;SDS011;7797;51.428;6.756;2023-09-19T02:45:30;3.97;;;2.10;;
15398;SDS011;7797;51.428;6.756;2023-09-19T02:47:57;4.80;;;2.23;;
15398;SDS011;7797;51.428;6.756;2023-09-19T02:50:24;3.43;;;2.00;;
15398;SDS011;7797;51.428;6.756;2023-09-19T02:52:51;5.63;;;2.40;;
15398;SDS011;7797;51.428;6.756;2023-09-19T02:55:18;5.67;;;2.33;;
15398;SDS011;7797;51.428;6.756;2023-09-19T02:57:47;6.03;;;2.07;;
15398;SDS011;7797;51.428;6.756;2023-09-19T03:00:15;5.60;;;2.00;;
15398;SDS011;7797;51.428;6.756;2023-09-19T03:02:43;3.77;;;2.00;;
15398;SDS011;7797;51.428;6.756;2023-09-19T03:05:12;3.83;;;2.30;;
15398;SDS011;7797;51.428;6.756;2023-09-19T03:07:40;5.97;;;2.10;;
15398;SDS011;7797;51.428;6.756;2023-09-19T03:10:09;1.93;;;1.73;;
15398;SDS011;7797;51.428;6.756;2023-09-19T03:12:36;3.30;;;1.73;;
15398;SDS011;7797;51.428;6.756;2023-09-19T03:15:03;5.80;;;1.80;;
15398;SDS011;7797;51.428;6.756;2023-09-19T03:17:31;4.50;;;2.00;;
15398;SDS011;7797;51.428;6.756;2023-09-19T03:19:59;5.70;;;2.10;;
15398;SDS011;7797;51.428;6.756;2023-09-19T03:22:26;5.00;;;2.00;;
15398;SDS011;7797;51.428;6.756;2023-09-19T03:24:53;3.57;;;2.40;;
15398;SDS011;7797;51.428;6.756;2023-09-19T03:27:20;6.00;;;2.23;;
15398;SDS011;7797;51.428;6.756;2023-09-19T03:29:47;5.83;;;2.40;;
15398;SDS011;7797;51.428;6.756;2023-09-19T03:32:14;4.10;;;2.40;;
15398;SDS011;7797;51.428;6.756;2023-09-19T03:34:41;6.63;;;2.83;;
15398;SDS011;7797;51.428;6.756;2023-09-19T03:37:09;4.07;;;2.30;;
15398;SDS011;7797;51.428;6.756;2023-09-19T03:39:36;5.03;;;2.50;;
15398;SDS011;7797;51.428;6.756;2023-09-19T03:42:03;4.83;;;2.30;;
15398;SDS011;7797;51.428;6.756;2023-09-19T03:44:30;5.67;;;2.53;;
15398;SDS011;7797;51.428;6.756;2023-09-19T03:46:57;4.97;;;2.23;;
15398;SDS011;7797;51.428;6.756;2023-09-19T03:49:24;5.90;;;2.27;;
15398;SDS011;7797;51.428;6.756;2023-09-19T03:51:51;5.20;;;2.50;;
15398;SDS011;7797;51.428;6.756;2023-09-19T03:54:18;3.97;;;2.10;;
15398;SDS011;7797;51.428;6.756;2023-09-19T03:56:46;5.53;;;2.10;;
15398;SDS011;7797;51.428;6.756;2023-09-19T03:59:12;6.20;;;2.00;;
15398;SDS011;7797;51.428;6.756;2023-09-19T04:01:40;5.90;;;2.20;;
15398;SDS011;7797;51.428;6.756;2023-09-19T04:04:07;4.17;;;2.20;;
15398;SDS011;7797;51.428;6.756;2023-09-19T04:06:34;5.87;;;2.00;;
15398;SDS011;7797;51.428;6.756;2023-09-19T04:09:02;3.20;;;1.90;;
15398;SDS011;7797;51.428;6.756;2023-09-19T04:11:30;6.87;;;2.17;;
15398;SDS011;7797;51.428;6.756;2023-09-19T04:13:57;5.07;;;1.83;;
15398;SDS011;7797;51.428;6.756;2023-09-19T04:16:24;6.30;;;2.20;;
15398;SDS011;7797;51.428;6.756;2023-09-19T04:18:51;4.73;;;2.13;;
15398;SDS011;7797;51.428;6.756;2023-09-19T04:21:18;4.13;;;1.67;;
15398;SDS011;7797;51.428;6.756;2023-09-19T04:23:45;4.13;;;1.90;;
15398;SDS011;7797;51.428;6.756;2023-09-19T04:26:12;3.80;;;1.80;;
15398;SDS011;7797;51.428;6.756;2023-09-19T04:28:39;7.07;;;1.93;;
15398;SDS011;7797;51.428;6.756;2023-09-19T04:31:06;4.77;;;1.80;;
15398;SDS011;7797;51.428;6.756;2023-09-19T04:33:34;3.30;;;1.83;;
15398;SDS011;7797;51.428;6.756;2023-09-19T04:36:01;5.17;;;2.00;;
15398;SDS011;7797;51.428;6.756;2023-09-19T04:38:50;3.77;;;1.80;;
15398;SDS011;7797;51.428;6.756;2023-09-19T04:41:16;4.77;;;1.73;;
15398;SDS011;7797;51.428;6.756;2023-09-19T04:43:43;4.37;;;1.63;;
15398;SDS011;7797;51.428;6.756;2023-09-19T04:46:10;4.07;;;2.00;;
15398;SDS011;7797;51.428;6.756;2023-09-19T04:48:37;5.47;;;2.10;;
15398;SDS011;7797;51.428;6.756;2023-09-19T04:51:04;2.27;;;1.60;;
15398;SDS011;7797;51.428;6.756;2023-09-19T04:53:31;6.53;;;2.03;;
15398;SDS011;7797;51.428;6.756;2023-09-19T04:55:58;8.37;;;2.47;;
15398;SDS011;7797;51.428;6.756;2023-09-19T04:58:25;6.53;;;2.00;;
15398;SDS011;7797;51.428;6.756;2023-09-19T05:00:52;4.63;;;2.10;;
15398;SDS011;7797;51.428;6.756;2023-09-19T05:03:19;5.83;;;1.50;;
15398;SDS011;7797;51.428;6.756;2023-09-19T05:05:46;4.27;;;1.90;;
15398;SDS011;7797;51.428;6.756;2023-09-19T05:08:13;5.50;;;2.30;;
15398;SDS011;7797;51.428;6.756;2023-09-19T05:10:41;4.67;;;2.20;;
15398;SDS011;7797;51.428;6.756;2023-09-19T05:13:08;4.23;;;2.30;;
15398;SDS011;7797;51.428;6.756;2023-09-19T05:15:34;5.13;;;1.97;;
15398;SDS011;7797;51.428;6.756;2023-09-19T05:18:02;4.93;;;1.90;;
15398;SDS011;7797;51.428;6.756;2023-09-19T05:20:29;4.47;;;2.10;;
15398;SDS011;7797;51.428;6.756;2023-09-19T05:23:02;6.60;;;2.20;;
15398;SDS011;7797;51.428;6.756;2023-09-19T05:25:32;7.53;;;2.40;;
15398;SDS011;7797;51.428;6.756;2023-09-19T05:27:59;6.77;;;2.07;;
15398;SDS011;7797;51.428;6.756;2023-09-19T05:30:30;8.67;;;2.67;;
15398;SDS011;7797;51.428;6.756;2023-09-19T05:32:57;4.57;;;2.20;;
15398;SDS011;7797;51.428;6.756;2023-09-19T05:35:24;3.93;;;2.23;;
15398;SDS011;7797;51.428;6.756;2023-09-19T05:37:53;5.13;;;2.57;;
15398;SDS011;7797;51.428;6.756;2023-09-19T05:40:21;6.00;;;2.30;;
15398;SDS011;7797;51.428;6.756;2023-09-19T05:42:48;4.30;;;2.50;;
15398;SDS011;7797;51.428;6.756;2023-09-19T05:45:17;6.20;;;2.70;;
15398;SDS011;7797;51.428;6.756;2023-09-19T05:47:49;4.87;;;2.40;;
15398;SDS011;7797;51.428;6.756;2023-09-19T05:50:16;3.67;;;2.10;;
15398;SDS011;7797;51.428;6.756;2023-09-19T05:52:51;7.70;;;2.43;;
15398;SDS011;7797;51.428;6.756;2023-09-19T05:55:19;5.67;;;2.40;;
15398;SDS011;7797;51.428;6.756;2023-09-19T05:57:50;5.73;;;2.20;;
15398;SDS011;7797;51.428;6.756;2023-09-19T06:00:23;4.93;;;1.97;;
15398;SDS011;7797;51.428;6.756;2023-09-19T06:02:50;5.03;;;2.50;;
15398;SDS011;7797;51.428;6.756;2023-09-19T06:05:21;3.80;;;1.93;;
15398;SDS011;7797;51.428;6.756;2023-09-19T06:07:48;4.80;;;2.27;;
15398;SDS011;7797;51.428;6.756;2023-09-19T06:10:15;5.60;;;2.47;;
15398;SDS011;7797;51.428;6.756;2023-09-19T06:12:43;5.57;;;2.30;;
15398;SDS011;7797;51.428;6.756;2023-09-19T06:15:11;4.53;;;2.13;;
15398;SDS011;7797;51.428;6.756;2023-09-19T06:17:49;6.03;;;2.50;;
15398;SDS011;7797;51.428;6.756;2023-09-19T06:20:17;5.33;;;2.20;;
15398;SDS011;7797;51.428;6.756;2023-09-19T06:22:44;6.43;;;2.40;;
15398;SDS011;7797;51.428;6.756;2023-09-19T06:25:12;6.13;;;2.33;;
15398;SDS011;7797;51.428;6.756;2023-09-19T06:27:47;3.80;;;2.10;;
15398;SDS011;7797;51.428;6.756;2023-09-19T06:30:21;4.37;;;1.93;;
15398;SDS011;7797;51.428;6.756;2023-09-19T06:32:56;6.13;;;2.43;;
15398;SDS011;7797;51.428;6.756;2023-09-19T06:35:23;6.03;;;2.40;;
15398;SDS011;7797;51.428;6.756;2023-09-19T06:37:52;5.90;;;2.77;;
15398;SDS011;7797;51.428;6.756;2023-09-19T06:40:19;4.67;;;2.53;;
15398;SDS011;7797;51.428;6.756;2023-09-19T06:42:46;4.20;;;2.17;;
15398;SDS011;7797;51.428;6.756;2023-09-19T06:45:15;2.93;;;1.93;;
15398;SDS011;7797;51.428;6.756;2023-09-19T06:47:45;4.70;;;2.03;;
15398;SDS011;7797;51.428;6.756;2023-09-19T06:50:19;5.50;;;2.10;;
15398;SDS011;7797;51.428;6.756;2023-09-19T06:52:50;7.80;;;2.37;;
15398;SDS011;7797;51.428;6.756;2023-09-19T06:55:19;5.50;;;2.10;;
15398;SDS011;7797;51.428;6.756;2023-09-19T06:57:47;4.90;;;2.07;;
15398;SDS011;7797;51.428;6.756;2023-09-19T07:00:14;3.10;;;1.87;;
15398;SDS011;7797;51.428;6.756;2023-09-19T07:02:42;6.93;;;2.30;;
15398;SDS011;7797;51.428;6.756;2023-09-19T07:05:09;6.63;;;2.00;;
15398;SDS011;7797;51.428;6.756;2023-09-19T07:07:36;5.20;;;2.17;;
15398;SDS011;7797;51.428;6.756;2023-09-19T07:10:03;3.03;;;1.87;;
15398;SDS011;7797;51.428;6.756;2023-09-19T07:12:36;5.17;;;2.20;;
15398;SDS011;7797;51.428;6.756;2023-09-19T07:15:03;5.73;;;2.30;;
15398;SDS011;7797;51.428;6.756;2023-09-19T07:17:32;5.43;;;2.03;;
15398;SDS011;7797;51.428;6.756;2023-09-19T07:19:59;7.03;;;2.13;;
15398;SDS011;7797;51.428;6.756;2023-09-19T07:22:26;7.07;;;2.30;;
15398;SDS011;7797;51.428;6.756;2023-09-19T07:24:53;5.70;;;1.90;;
15398;SDS011;7797;51.428;6.756;2023-09-19T07:27:21;4.57;;;2.20;;
15398;SDS011;7797;51.428;6.756;2023-09-19T07:29:48;6.90;;;2.37;;
15398;SDS011;7797;51.428;6.756;2023-09-19T07:32:18;8.50;;;2.30;;
15398;SDS011;7797;51.428;6.756;2023-09-19T07:34:45;4.57;;;2.00;;
15398;SDS011;7797;51.428;6.756;2023-09-19T07:37:12;5.30;;;1.80;;
15398;SDS011;7797;51.428;6.756;2023-09-19T07:39:41;11.30;;;2.27;;
15398;SDS011;7797;51.428;6.756;2023-09-19T07:42:08;4.73;;;1.97;;
15398;SDS011;7797;51.428;6.756;2023-09-19T07:44:35;6.37;;;2.17;;
15398;SDS011;7797;51.428;6.756;2023-09-19T07:47:02;4.60;;;2.10;;
15398;SDS011;7797;51.428;6.756;2023-09-19T07:49:29;5.97;;;2.03;;
15398;SDS011;7797;51.428;6.756;2023-09-19T07:51:56;6.17;;;2.20;;
15398;SDS011;7797;51.428;6.756;2023-09-19T07:54:24;5.70;;;2.20;;
15398;SDS011;7797;51.428;6.756;2023-09-19T07:56:50;4.10;;;2.00;;
15398;SDS011;7797;51.428;6.756;2023-09-19T07:59:17;6.10;;;2.30;;
15398;SDS011;7797;51.428;6.756;2023-09-19T08:01:44;5.43;;;1.90;;
15398;SDS011;7797;51.428;6.756;2023-09-19T08:04:11;7.70;;;2.20;;
15398;SDS011;7797;51.428;6.756;2023-09-19T08:06:38;5.53;;;2.10;;
15398;SDS011;7797;51.428;6.756;2023-09-19T08:09:05;5.67;;;2.00;;
15398;SDS011;7797;51.428;6.756;2023-09-19T08:11:35;9.00;;;2.40;;
15398;SDS011;7797;51.428;6.756;2023-09-19T08:14:02;6.30;;;1.93;;
15398;SDS011;7797;51.428;6.756;2023-09-19T08:16:29;5.27;;;2.13;;
15398;SDS011;7797;51.428;6.756;2023-09-19T08:18:56;4.83;;;2.00;;
15398;SDS011;7797;51.428;6.756;2023-09-19T08:21:23;6.77;;;2.40;;
15398;SDS011;7797;51.428;6.756;2023-09-19T08:23:50;6.70;;;2.00;;
15398;SDS011;7797;51.428;6.756;2023-09-19T08:26:17;3.73;;;1.80;;
15398;SDS011;7797;51.428;6.756;2023-09-19T08:28:44;5.80;;;2.33;;
15398;SDS011;7797;51.428;6.756;2023-09-19T08:31:11;5.87;;;2.03;;
15398;SDS011;7797;51.428;6.756;2023-09-19T08:33:40;5.13;;;2.40;;
15398;SDS011;7797;51.428;6.756;2023-09-19T08:36:08;2.50;;;1.80;;
15398;SDS011;7797;51.428;6.756;2023-09-19T08:38:35;6.53;;;2.03;;
15398;SDS011;7797;51.428;6.756;2023-09-19T08:41:07;3.87;;;1.93;;
15398;SDS011;7797;51.428;6.756;2023-09-19T08:43:35;4.10;;;2.03;;
15398;SDS011;7797;51.428;6.756;2023-09-19T08:48:34;7.53;;;2.10;;
15398;SDS011;7797;51.428;6.756;2023-09-19T08:51:10;5.23;;;2.30;;
15398;SDS011;7797;51.428;6.756;2023-09-19T08:56:45;8.73;;;2.10;;
15398;SDS011;7797;51.428;6.756;2023-09-19T08:59:25;6.23;;;2.00;;
15398;SDS011;7797;51.428;6.756;2023-09-19T09:01:55;4.50;;;1.93;;
15398;SDS011;7797;51.428;6.756;2023-09-19T09:04:24;6.03;;;2.23;;
15398;SDS011;7797;51.428;6.756;2023-09-19T09:06:52;7.97;;;2.20;;
15398;SDS011;7797;51.428;6.756;2023-09-19T09:09:21;4.83;;;1.80;;
15398;SDS011;7797;51.428;6.756;2023-09-19T09:11:48;3.97;;;1.90;;
15398;SDS011;7797;51.428;6.756;2023-09-19T09:14:17;6.60;;;1.83;;
15398;SDS011;7797;51.428;6.756;2023-09-19T09:16:45;8.77;;;2.10;;
15398;SDS011;7797;51.428;6.756;2023-09-19T09:19:12;7.60;;;2.37;;
15398;SDS011;7797;51.428;6.756;2023-09-19T09:21:39;5.07;;;2.10;;
15398;SDS011;7797;51.428;6.756;2023-09-19T09:27:02;4.30;;;1.90;;
15398;SDS011;7797;51.428;6.756;2023-09-19T09:29:42;6.83;;;2.20;;
15398;SDS011;7797;51.428;6.756;2023-09-19T09:32:27;5.97;;;2.00;;
15398;SDS011;7797;51.428;6.756;2023-09-19T09:34:56;6.07;;;2.00;;
15398;SDS011;7797;51.428;6.756;2023-09-19T09:37:27;4.97;;;1.67;;
15398;SDS011;7797;51.428;6.756;2023-09-19T09:40:01;5.00;;;1.97;;
15398;SDS011;7797;51.428;6.756;2023-09-19T09:42:41;4.37;;;1.87;;
15398;SDS011;7797;51.428;6.756;2023-09-19T09:48:02;7.77;;;2.27;;
15398;SDS011;7797;51.428;6.756;2023-09-19T09:50:34;5.30;;;2.20;;
15398;SDS011;7797;51.428;6.756;2023-09-19T09:53:21;4.13;;;2.10;;
15398;SDS011;7797;51.428;6.756;2023-09-19T09:58:26;4.57;;;2.10;;
15398;SDS011;7797;51.428;6.756;2023-09-19T10:00:58;4.73;;;1.70;;
15398;SDS011;7797;51.428;6.756;2023-09-19T10:03:33;8.13;;;2.00;;
15398;SDS011;7797;51.428;6.756;2023-09-19T10:06:16;6.80;;;2.10;;
15398;SDS011;7797;51.428;6.756;2023-09-19T10:14:11;4.70;;;1.90;;
15398;SDS011;7797;51.428;6.756;2023-09-19T10:16:46;4.30;;;1.87;;
15398;SDS011;7797;51.428;6.756;2023-09-19T10:19:22;4.57;;;1.90;;
15398;SDS011;7797;51.428;6.756;2023-09-19T10:21:53;6.23;;;1.60;;
15398;SDS011;7797;51.428;6.756;2023-09-19T10:24:21;3.83;;;2.00;;
15398;SDS011;7797;51.428;6.756;2023-09-19T10:26:49;5.57;;;1.97;;
15398;SDS011;7797;51.428;6.756;2023-09-19T10:29:17;4.83;;;2.20;;
15398;SDS011;7797;51.428;6.756;2023-09-19T10:31:44;4.57;;;1.90;;
15398;SDS011;7797;51.428;6.756;2023-09-19T10:34:14;5.17;;;2.33;;
15398;SDS011;7797;51.428;6.756;2023-09-19T10:36:44;5.83;;;2.10;;
15398;SDS011;7797;51.428;6.756;2023-09-19T10:39:12;2.93;;;1.90;;
15398;SDS011;7797;51.428;6.756;2023-09-19T10:41:53;3.57;;;1.80;;
15398;SDS011;7797;51.428;6.756;2023-09-19T10:44:25;4.43;;;1.80;;
15398;SDS011;7797;51.428;6.756;2023-09-19T10:46:52;4.10;;;1.83;;
15398;SDS011;7797;51.428;6.756;2023-09-19T10:49:22;5.13;;;2.30;;
15398;SDS011;7797;51.428;6.756;2023-09-19T10:51:54;3.90;;;1.90;;
15398;SDS011;7797;51.428;6.756;2023-09-19T10:54:26;9.37;;;2.17;;
15398;SDS011;7797;51.428;6.756;2023-09-19T10:56:55;4.97;;;2.20;;
15398;SDS011;7797;51.428;6.756;2023-09-19T10:59:25;4.33;;;1.90;;
15398;SDS011;7797;51.428;6.756;2023-09-19T11:01:52;5.50;;;2.37;;
15398;SDS011;7797;51.428;6.756;2023-09-19T11:09:49;3.97;;;1.80;;
15398;SDS011;7797;51.428;6.756;2023-09-19T11:26:57;2.60;;;1.50;;
15398;SDS011;7797;51.428;6.756;2023-09-19T11:29:36;5.33;;;2.13;;
15398;SDS011;7797;51.428;6.756;2023-09-19T11:32:04;3.93;;;1.80;;
15398;SDS011;7797;51.428;6.756;2023-09-19T11:40:05;3.60;;;2.10;;
15398;SDS011;7797;51.428;6.756;2023-09-19T11:42:46;3.43;;;1.70;;
15398;SDS011;7797;51.428;6.756;2023-09-19T11:48:24;3.33;;;1.97;;
15398;SDS011;7797;51.428;6.756;2023-09-19T11:50:54;3.90;;;1.90;;
15398;SDS011;7797;51.428;6.756;2023-09-19T11:53:22;7.17;;;1.93;;
15398;SDS011;7797;51.428;6.756;2023-09-19T11:55:49;3.60;;;2.17;;
15398;SDS011;7797;51.428;6.756;2023-09-19T11:58:18;3.17;;;1.80;;
15398;SDS011;7797;51.428;6.756;2023-09-19T12:00:46;3.37;;;1.90;;
15398;SDS011;7797;51.428;6.756;2023-09-19T12:03:21;4.13;;;1.93;;
15398;SDS011;7797;51.428;6.756;2023-09-19T12:05:48;5.07;;;2.10;;
15398;SDS011;7797;51.428;6.756;2023-09-19T12:08:15;4.83;;;2.00;;
15398;SDS011;7797;51.428;6.756;2023-09-19T12:10:50;4.03;;;1.87;;
15398;SDS011;7797;51.428;6.756;2023-09-19T12:13:18;6.17;;;2.00;;
15398;SDS011;7797;51.428;6.756;2023-09-19T12:15:45;2.30;;;1.97;;
15398;SDS011;7797;51.428;6.756;2023-09-19T12:18:30;4.17;;;1.70;;
15398;SDS011;7797;51.428;6.756;2023-09-19T12:20:57;5.40;;;2.13;;
15398;SDS011;7797;51.428;6.756;2023-09-19T12:23:24;5.47;;;2.37;;
15398;SDS011;7797;51.428;6.756;2023-09-19T12:25:54;3.07;;;1.70;;
15398;SDS011;7797;51.428;6.756;2023-09-19T12:28:27;4.53;;;1.83;;
15398;SDS011;7797;51.428;6.756;2023-09-19T12:31:06;3.83;;;2.00;;
15398;SDS011;7797;51.428;6.756;2023-09-19T12:33:35;4.00;;;1.80;;
15398;SDS011;7797;51.428;6.756;2023-09-19T12:36:19;4.53;;;1.87;;
15398;SDS011;7797;51.428;6.756;2023-09-19T12:38:51;4.83;;;2.80;;
15398;SDS011;7797;51.428;6.756;2023-09-19T12:41:25;3.83;;;2.07;;
15398;SDS011;7797;51.428;6.756;2023-09-19T12:43:53;3.50;;;2.27;;
15398;SDS011;7797;51.428;6.756;2023-09-19T12:46:21;5.13;;;2.10;;
15398;SDS011;7797;51.428;6.756;2023-09-19T12:51:46;5.33;;;1.90;;
15398;SDS011;7797;51.428;6.756;2023-09-19T12:54:14;3.50;;;1.80;;
15398;SDS011;7797;51.428;6.756;2023-09-19T12:56:42;4.73;;;1.53;;
15398;SDS011;7797;51.428;6.756;2023-09-19T12:59:14;3.00;;;1.80;;
15398;SDS011;7797;51.428;6.756;2023-09-19T13:01:42;4.27;;;2.20;;
15398;SDS011;7797;51.428;6.756;2023-09-19T13:04:19;3.07;;;1.70;;
15398;SDS011;7797;51.428;6.756;2023-09-19T13:06:48;3.90;;;1.80;;
15398;SDS011;7797;51.428;6.756;2023-09-19T13:09:17;3.03;;;1.70;;
15398;SDS011;7797;51.428;6.756;2023-09-19T13:11:47;1.63;;;1.40;;
15398;SDS011;7797;51.428;6.756;2023-09-19T13:19:40;2.57;;;1.60;;
15398;SDS011;7797;51.428;6.756;2023-09-19T13:22:43;2.33;;;1.53;;
15398;SDS011;7797;51.428;6.756;2023-09-19T13:25:21;2.23;;;1.50;;
15398;SDS011;7797;51.428;6.756;2023-09-19T13:27:49;4.93;;;1.67;;
15398;SDS011;7797;51.428;6.756;2023-09-19T13:30:19;2.80;;;1.67;;
15398;SDS011;7797;51.428;6.756;2023-09-19T13:32:46;2.33;;;1.80;;
15398;SDS011;7797;51.428;6.756;2023-09-19T13:35:14;2.83;;;1.30;;
15398;SDS011;7797;51.428;6.756;2023-09-19T13:37:42;6.73;;;1.70;;
15398;SDS011;7797;51.428;6.756;2023-09-19T13:40:10;2.77;;;1.43;;
15398;SDS011;7797;51.428;6.756;2023-09-19T13:42:38;2.97;;;1.43;;
15398;SDS011;7797;51.428;6.756;2023-09-19T13:45:06;4.90;;;1.20;;
15398;SDS011;7797;51.428;6.756;2023-09-19T13:47:34;1.97;;;1.30;;
15398;SDS011;7797;51.428;6.756;2023-09-19T13:50:03;4.53;;;1.80;;
15398;SDS011;7797;51.428;6.756;2023-09-19T13:52:31;2.47;;;1.23;;
15398;SDS011;7797;51.428;6.756;2023-09-19T13:54:58;2.43;;;1.40;;
15398;SDS011;7797;51.428;6.756;2023-09-19T13:57:26;3.23;;;1.53;;
15398;SDS011;7797;51.428;6.756;2023-09-19T13:59:53;3.53;;;1.30;;
15398;SDS011;7797;51.428;6.756;2023-09-19T14:02:22;1.67;;;1.27;;
15398;SDS011;7797;51.428;6.756;2023-09-19T14:04:49;2.00;;;1.30;;
15398;SDS011;7797;51.428;6.756;2023-09-19T14:07:20;1.87;;;1.23;;
15398;SDS011;7797;51.428;6.756;2023-09-19T14:09:47;1.77;;;1.67;;
15398;SDS011;7797;51.428;6.756;2023-09-19T14:12:14;2.87;;;1.20;;
15398;SDS011;7797;51.428;6.756;2023-09-19T14:14:42;2.10;;;1.07;;
15398;SDS011;7797;51.428;6.756;2023-09-19T14:17:09;2.07;;;1.27;;
15398;SDS011;7797;51.428;6.756;2023-09-19T14:19:36;1.60;;;1.10;;
15398;SDS011;7797;51.428;6.756;2023-09-19T14:22:08;1.17;;;1.07;;
15398;SDS011;7797;51.428;6.756;2023-09-19T14:24:38;4.27;;;1.17;;
15398;SDS011;7797;51.428;6.756;2023-09-19T14:27:07;2.07;;;1.17;;
15398;SDS011;7797;51.428;6.756;2023-09-19T14:29:35;1.57;;;1.00;;
15398;SDS011;7797;51.428;6.756;2023-09-19T14:32:06;2.23;;;1.10;;
15398;SDS011;7797;51.428;6.756;2023-09-19T14:34:33;2.63;;;1.20;;
15398;SDS011;7797;51.428;6.756;2023-09-19T14:37:00;2.80;;;1.50;;
15398;SDS011;7797;51.428;6.756;2023-09-19T14:39:27;1.53;;;1.00;;
15398;SDS011;7797;51.428;6.756;2023-09-19T14:41:59;2.00;;;1.50;;
15398;SDS011;7797;51.428;6.756;2023-09-19T14:44:29;2.23;;;1.07;;
15398;SDS011;7797;51.428;6.756;2023-09-19T14:46:59;1.57;;;1.10;;
15398;SDS011;7797;51.428;6.756;2023-09-19T14:49:26;1.43;;;1.20;;
15398;SDS011;7797;51.428;6.756;2023-09-19T14:51:55;0.97;;;0.80;;
15398;SDS011;7797;51.428;6.756;2023-09-19T14:54:22;3.50;;;1.00;;
15398;SDS011;7797;51.428;6.756;2023-09-19T14:56:50;1.10;;;0.73;;
15398;SDS011;7797;51.428;6.756;2023-09-19T14:59:30;1.97;;;1.00;;
15398;SDS011;7797;51.428;6.756;2023-09-19T15:01:58;2.90;;;0.90;;
15398;SDS011;7797;51.428;6.756;2023-09-19T15:04:26;2.20;;;1.00;;
15398;SDS011;7797;51.428;6.756;2023-09-19T15:06:56;1.70;;;0.80;;
15398;SDS011;7797;51.428;6.756;2023-09-19T15:09:23;1.67;;;0.90;;
15398;SDS011;7797;51.428;6.756;2023-09-19T15:11:52;1.70;;;1.10;;
15398;SDS011;7797;51.428;6.756;2023-09-19T15:14:20;2.20;;;1.13;;
15398;SDS011;7797;51.428;6.756;2023-09-19T15:16:47;1.43;;;1.00;;
15398;SDS011;7797;51.428;6.756;2023-09-19T15:19:15;0.93;;;0.83;;
15398;SDS011;7797;51.428;6.756;2023-09-19T15:21:43;1.80;;;1.13;;
15398;SDS011;7797;51.428;6.756;2023-09-19T15:24:10;2.50;;;0.87;;
15398;SDS011;7797;51.428;6.756;2023-09-19T15:26:37;1.33;;;1.10;;
15398;SDS011;7797;51.428;6.756;2023-09-19T15:29:07;1.10;;;0.80;;
15398;SDS011;7797;51.428;6.756;2023-09-19T15:31:34;0.80;;;0.67;;
15398;SDS011;7797;51.428;6.756;2023-09-19T15:34:03;0.90;;;0.90;;
15398;SDS011;7797;51.428;6.756;2023-09-19T15:36:31;0.80;;;0.80;;
15398;SDS011;7797;51.428;6.756;2023-09-19T15:39:02;2.47;;;0.90;;
15398;SDS011;7797;51.428;6.756;2023-09-19T15:41:44;2.13;;;1.10;;
15398;SDS011;7797;51.428;6.756;2023-09-19T15:44:13;0.93;;;0.87;;
15398;SDS011;7797;51.428;6.756;2023-09-19T15:46:42;1.80;;;0.90;;
15398;SDS011;7797;51.428;6.756;2023-09-19T15:49:09;1.00;;;0.90;;
15398;SDS011;7797;51.428;6.756;2023-09-19T15:51:36;1.60;;;1.03;;
15398;SDS011;7797;51.428;6.756;2023-09-19T15:54:11;1.10;;;0.80;;
15398;SDS011;7797;51.428;6.756;2023-09-19T15:56:41;1.53;;;0.93;;
15398;SDS011;7797;51.428;6.756;2023-09-19T15:59:09;3.10;;;1.17;;
15398;SDS011;7797;51.428;6.756;2023-09-19T16:01:37;1.63;;;1.00;;
15398;SDS011;7797;51.428;6.756;2023-09-19T16:04:04;1.57;;;0.77;;
15398;SDS011;7797;51.428;6.756;2023-09-19T16:06:31;1.73;;;1.60;;
15398;SDS011;7797;51.428;6.756;2023-09-19T16:08:59;3.40;;;1.50;;
15398;SDS011;7797;51.428;6.756;2023-09-19T16:11:26;3.53;;;1.37;;
15398;SDS011;7797;51.428;6.756;2023-09-19T16:13:54;1.67;;;1.57;;
15398;SDS011;7797;51.428;6.756;2023-09-19T16:16:22;2.07;;;1.80;;
15398;SDS011;7797;51.428;6.756;2023-09-19T16:18:53;3.43;;;1.90;;
15398;SDS011;7797;51.428;6.756;2023-09-19T16:21:27;2.87;;;1.67;;
15398;SDS011;7797;51.428;6.756;2023-09-19T16:23:55;2.13;;;1.57;;